sensor_id;sensor_type;location;lat;lon;timestamp;temperature;humidity
24614;DHT22;12760;46.296;25.290;2022-10-23T00:02:09;14.70;99.90
24614;DHT22;12760;46.296;25.290;2022-10-23T00:04:35;14.80;99.90
24614;DHT22;12760;46.296;25.290;2022-10-23T00:07:00;14.80;99.90
24614;DHT22;12760;46.296;25.290;2022-10-23T00:09:26;14.70;99.90
24614;DHT22;12760;46.296;25.290;2022-10-23T00:11:52;14.70;99.90
24614;DHT22;12760;46.296;25.290;2022-10-23T00:14:20;14.60;99.90
24614;DHT22;12760;46.296;25.290;2022-10-23T00:16:46;14.60;99.90
24614;DHT22;12760;46.296;25.290;2022-10-23T00:19:12;14.60;99.90
24614;DHT22;12760;46.296;25.290;2022-10-23T00:21:38;14.50;99.90
24614;DHT22;12760;46.296;25.290;2022-10-23T00:24:04;14.50;99.90
24614;DHT22;12760;46.296;25.290;2022-10-23T00:26:30;14.50;99.90
24614;DHT22;12760;46.296;25.290;2022-10-23T00:28:56;14.50;99.90
24614;DHT22;12760;46.296;25.290;2022-10-23T00:31:22;14.50;99.90
24614;DHT22;12760;46.296;25.290;2022-10-23T00:33:49;14.50;99.90
24614;DHT22;12760;46.296;25.290;2022-10-23T00:36:17;14.40;99.90
24614;DHT22;12760;46.296;25.290;2022-10-23T00:38:43;14.40;99.90
24614;DHT22;12760;46.296;25.290;2022-10-23T00:41:15;14.40;99.90
24614;DHT22;12760;46.296;25.290;2022-10-23T00:46:23;14.40;99.90
24614;DHT22;12760;46.296;25.290;2022-10-23T00:48:49;14.40;99.90
24614;DHT22;12760;46.296;25.290;2022-10-23T00:51:15;14.40;99.90
24614;DHT22;12760;46.296;25.290;2022-10-23T00:53:42;14.50;99.90
24614;DHT22;12760;46.296;25.290;2022-10-23T00:56:09;14.50;99.90
24614;DHT22;12760;46.296;25.290;2022-10-23T00:58:34;14.60;99.90
24614;DHT22;12760;46.296;25.290;2022-10-23T01:01:00;14.60;99.90
24614;DHT22;12760;46.296;25.290;2022-10-23T01:03:27;14.70;99.90
24614;DHT22;12760;46.296;25.290;2022-10-23T01:06:02;14.70;99.90
24614;DHT22;12760;46.296;25.290;2022-10-23T01:11:19;14.70;99.90
24614;DHT22;12760;46.296;25.290;2022-10-23T01:13:53;14.60;99.90
24614;DHT22;12760;46.296;25.290;2022-10-23T01:17:04;14.60;99.90
24614;DHT22;12760;46.296;25.290;2022-10-23T01:19:55;14.60;99.90
24614;DHT22;12760;46.296;25.290;2022-10-23T01:22:37;14.60;99.90
24614;DHT22;12760;46.296;25.290;2022-10-23T01:31:03;14.70;99.90
24614;DHT22;12760;46.296;25.290;2022-10-23T01:33:44;14.60;99.90
24614;DHT22;12760;46.296;25.290;2022-10-23T01:36:14;14.60;99.90
24614;DHT22;12760;46.296;25.290;2022-10-23T01:38:54;14.60;99.90
24614;DHT22;12760;46.296;25.290;2022-10-23T01:41:26;14.50;99.90
24614;DHT22;12760;46.296;25.290;2022-10-23T01:44:15;14.50;99.90
24614;DHT22;12760;46.296;25.290;2022-10-23T01:46:45;14.50;99.90
24614;DHT22;12760;46.296;25.290;2022-10-23T01:49:14;14.50;99.90
24614;DHT22;12760;46.296;25.290;2022-10-23T01:51:43;14.50;99.90
24614;DHT22;12760;46.296;25.290;2022-10-23T01:54:12;14.40;99.90
24614;DHT22;12760;46.296;25.290;2022-10-23T01:56:42;14.40;99.90
24614;DHT22;12760;46.296;25.290;2022-10-23T01:59:13;14.30;99.90
24614;DHT22;12760;46.296;25.290;2022-10-23T02:01:43;14.40;99.90
24614;DHT22;12760;46.296;25.290;2022-10-23T02:04:13;14.40;99.90
24614;DHT22;12760;46.296;25.290;2022-10-23T02:06:40;14.40;99.90
24614;DHT22;12760;46.296;25.290;2022-10-23T02:09:06;14.40;99.90
24614;DHT22;12760;46.296;25.290;2022-10-23T02:11:38;14.40;99.90
24614;DHT22;12760;46.296;25.290;2022-10-23T02:14:19;14.40;99.90
24614;DHT22;12760;46.296;25.290;2022-10-23T02:16:53;14.30;99.90
24614;DHT22;12760;46.296;25.290;2022-10-23T02:19:48;14.30;99.90
24614;DHT22;12760;46.296;25.290;2022-10-23T02:22:25;14.40;99.90
24614;DHT22;12760;46.296;25.290;2022-10-23T02:24:57;14.40;99.90
24614;DHT22;12760;46.296;25.290;2022-10-23T02:27:44;14.40;99.90
24614;DHT22;12760;46.296;25.290;2022-10-23T02:30:13;14.40;99.90
24614;DHT22;12760;46.296;25.290;2022-10-23T02:32:43;14.50;99.90
24614;DHT22;12760;46.296;25.290;2022-10-23T02:35:10;14.50;99.90
24614;DHT22;12760;46.296;25.290;2022-10-23T02:37:35;14.30;99.90
24614;DHT22;12760;46.296;25.290;2022-10-23T02:40:02;14.30;99.90
24614;DHT22;12760;46.296;25.290;2022-10-23T02:42:38;14.30;99.90
24614;DHT22;12760;46.296;25.290;2022-10-23T02:45:19;14.30;99.90
24614;DHT22;12760;46.296;25.290;2022-10-23T02:56:20;14.00;99.90
24614;DHT22;12760;46.296;25.290;2022-10-23T03:04:13;14.00;99.90
24614;DHT22;12760;46.296;25.290;2022-10-23T03:06:40;14.10;99.90
24614;DHT22;12760;46.296;25.290;2022-10-23T03:09:07;14.10;99.90
24614;DHT22;12760;46.296;25.290;2022-10-23T03:11:33;14.10;99.90
24614;DHT22;12760;46.296;25.290;2022-10-23T03:13:59;14.10;99.90
24614;DHT22;12760;46.296;25.290;2022-10-23T03:16:25;14.20;99.90
24614;DHT22;12760;46.296;25.290;2022-10-23T03:18:51;14.30;99.90
24614;DHT22;12760;46.296;25.290;2022-10-23T03:21:17;14.30;99.90
24614;DHT22;12760;46.296;25.290;2022-10-23T03:23:43;14.40;99.90
24614;DHT22;12760;46.296;25.290;2022-10-23T03:26:09;14.40;99.90
24614;DHT22;12760;46.296;25.290;2022-10-23T03:28:34;14.50;99.90
24614;DHT22;12760;46.296;25.290;2022-10-23T03:31:01;14.40;99.90
24614;DHT22;12760;46.296;25.290;2022-10-23T03:33:27;14.40;99.90
24614;DHT22;12760;46.296;25.290;2022-10-23T03:35:53;14.40;99.90
24614;DHT22;12760;46.296;25.290;2022-10-23T03:38:19;14.50;99.90
24614;DHT22;12760;46.296;25.290;2022-10-23T03:40:45;14.40;99.90
24614;DHT22;12760;46.296;25.290;2022-10-23T03:43:10;14.30;99.90
24614;DHT22;12760;46.296;25.290;2022-10-23T03:45:36;14.30;99.90
24614;DHT22;12760;46.296;25.290;2022-10-23T03:48:04;14.30;99.90
24614;DHT22;12760;46.296;25.290;2022-10-23T03:50:29;14.30;99.90
24614;DHT22;12760;46.296;25.290;2022-10-23T03:52:55;14.30;99.90
24614;DHT22;12760;46.296;25.290;2022-10-23T03:55:21;14.30;99.90
24614;DHT22;12760;46.296;25.290;2022-10-23T03:57:47;14.30;99.90
24614;DHT22;12760;46.296;25.290;2022-10-23T04:00:13;14.30;99.90
24614;DHT22;12760;46.296;25.290;2022-10-23T04:02:39;14.40;99.90
24614;DHT22;12760;46.296;25.290;2022-10-23T04:05:05;14.40;99.90
24614;DHT22;12760;46.296;25.290;2022-10-23T04:07:31;14.30;99.90
24614;DHT22;12760;46.296;25.290;2022-10-23T04:09:56;14.40;99.90
24614;DHT22;12760;46.296;25.290;2022-10-23T04:12:22;14.40;99.90
24614;DHT22;12760;46.296;25.290;2022-10-23T04:14:48;14.40;99.90
24614;DHT22;12760;46.296;25.290;2022-10-23T04:17:13;14.40;99.90
24614;DHT22;12760;46.296;25.290;2022-10-23T04:19:39;14.40;99.90
24614;DHT22;12760;46.296;25.290;2022-10-23T04:22:05;14.40;99.90
24614;DHT22;12760;46.296;25.290;2022-10-23T04:24:30;14.20;99.90
24614;DHT22;12760;46.296;25.290;2022-10-23T04:26:56;14.20;99.90
24614;DHT22;12760;46.296;25.290;2022-10-23T04:29:22;14.20;99.90
24614;DHT22;12760;46.296;25.290;2022-10-23T04:31:49;14.20;99.90
24614;DHT22;12760;46.296;25.290;2022-10-23T04:34:16;14.20;99.90
24614;DHT22;12760;46.296;25.290;2022-10-23T04:36:42;14.20;99.90
24614;DHT22;12760;46.296;25.290;2022-10-23T04:39:08;14.20;99.90
24614;DHT22;12760;46.296;25.290;2022-10-23T04:41:34;14.10;99.90
24614;DHT22;12760;46.296;25.290;2022-10-23T04:44:00;14.20;99.90
24614;DHT22;12760;46.296;25.290;2022-10-23T04:46:26;14.20;99.90
24614;DHT22;12760;46.296;25.290;2022-10-23T04:48:51;14.10;99.90
24614;DHT22;12760;46.296;25.290;2022-10-23T04:51:17;14.10;99.90
24614;DHT22;12760;46.296;25.290;2022-10-23T04:53:43;14.10;99.90
24614;DHT22;12760;46.296;25.290;2022-10-23T04:56:12;14.10;99.90
24614;DHT22;12760;46.296;25.290;2022-10-23T04:58:39;14.10;99.90
24614;DHT22;12760;46.296;25.290;2022-10-23T05:01:04;14.10;99.90
24614;DHT22;12760;46.296;25.290;2022-10-23T05:03:32;14.10;99.90
24614;DHT22;12760;46.296;25.290;2022-10-23T05:05:58;14.00;99.90
24614;DHT22;12760;46.296;25.290;2022-10-23T05:08:24;14.10;99.90
24614;DHT22;12760;46.296;25.290;2022-10-23T05:10:50;14.00;99.90
24614;DHT22;12760;46.296;25.290;2022-10-23T05:13:16;14.00;99.90
24614;DHT22;12760;46.296;25.290;2022-10-23T05:15:47;14.10;99.90
24614;DHT22;12760;46.296;25.290;2022-10-23T05:18:30;14.10;99.90
24614;DHT22;12760;46.296;25.290;2022-10-23T05:21:11;14.10;99.90
24614;DHT22;12760;46.296;25.290;2022-10-23T05:23:40;14.10;99.90
24614;DHT22;12760;46.296;25.290;2022-10-23T05:26:07;14.00;99.90
24614;DHT22;12760;46.296;25.290;2022-10-23T05:28:32;14.00;99.90
24614;DHT22;12760;46.296;25.290;2022-10-23T05:31:01;14.00;99.90
24614;DHT22;12760;46.296;25.290;2022-10-23T05:33:27;14.00;99.90
24614;DHT22;12760;46.296;25.290;2022-10-23T05:35:54;14.00;99.90
24614;DHT22;12760;46.296;25.290;2022-10-23T05:38:20;13.90;99.90
24614;DHT22;12760;46.296;25.290;2022-10-23T05:40:46;13.90;99.90
24614;DHT22;12760;46.296;25.290;2022-10-23T05:43:11;13.90;99.90
24614;DHT22;12760;46.296;25.290;2022-10-23T05:45:37;13.90;99.90
24614;DHT22;12760;46.296;25.290;2022-10-23T05:48:03;13.90;99.90
24614;DHT22;12760;46.296;25.290;2022-10-23T05:50:29;13.90;99.90
24614;DHT22;12760;46.296;25.290;2022-10-23T05:52:55;14.00;99.90
24614;DHT22;12760;46.296;25.290;2022-10-23T05:55:20;14.00;99.90
24614;DHT22;12760;46.296;25.290;2022-10-23T05:57:46;13.90;99.90
24614;DHT22;12760;46.296;25.290;2022-10-23T06:00:12;13.90;99.90
24614;DHT22;12760;46.296;25.290;2022-10-23T06:02:38;13.80;99.90
24614;DHT22;12760;46.296;25.290;2022-10-23T06:05:04;13.90;99.90
24614;DHT22;12760;46.296;25.290;2022-10-23T06:07:31;13.90;99.90
24614;DHT22;12760;46.296;25.290;2022-10-23T06:09:56;13.90;99.90
24614;DHT22;12760;46.296;25.290;2022-10-23T06:12:22;14.00;99.90
24614;DHT22;12760;46.296;25.290;2022-10-23T06:14:48;14.00;99.90
24614;DHT22;12760;46.296;25.290;2022-10-23T06:17:14;14.00;99.90
24614;DHT22;12760;46.296;25.290;2022-10-23T06:19:40;13.90;99.90
24614;DHT22;12760;46.296;25.290;2022-10-23T06:22:06;14.00;99.90
24614;DHT22;12760;46.296;25.290;2022-10-23T06:24:31;14.00;99.90
24614;DHT22;12760;46.296;25.290;2022-10-23T06:26:57;14.00;99.90
24614;DHT22;12760;46.296;25.290;2022-10-23T06:29:23;13.90;99.90
24614;DHT22;12760;46.296;25.290;2022-10-23T06:31:48;13.90;99.90
24614;DHT22;12760;46.296;25.290;2022-10-23T06:34:14;13.90;99.90
24614;DHT22;12760;46.296;25.290;2022-10-23T06:36:40;13.90;99.90
24614;DHT22;12760;46.296;25.290;2022-10-23T06:39:06;13.70;99.90
24614;DHT22;12760;46.296;25.290;2022-10-23T06:41:32;13.60;99.90
24614;DHT22;12760;46.296;25.290;2022-10-23T06:43:58;13.70;99.90
24614;DHT22;12760;46.296;25.290;2022-10-23T06:46:24;13.80;99.90
24614;DHT22;12760;46.296;25.290;2022-10-23T06:48:51;13.80;99.90
24614;DHT22;12760;46.296;25.290;2022-10-23T06:51:18;13.80;99.90
24614;DHT22;12760;46.296;25.290;2022-10-23T06:53:44;13.80;99.90
24614;DHT22;12760;46.296;25.290;2022-10-23T06:56:10;13.80;99.90
24614;DHT22;12760;46.296;25.290;2022-10-23T06:58:37;13.80;99.90
24614;DHT22;12760;46.296;25.290;2022-10-23T07:01:06;13.80;99.90
24614;DHT22;12760;46.296;25.290;2022-10-23T07:03:32;13.80;99.90
24614;DHT22;12760;46.296;25.290;2022-10-23T07:06:04;13.90;99.90
24614;DHT22;12760;46.296;25.290;2022-10-23T07:08:30;13.80;99.90
24614;DHT22;12760;46.296;25.290;2022-10-23T07:10:56;13.60;99.90
24614;DHT22;12760;46.296;25.290;2022-10-23T07:13:22;13.70;99.90
24614;DHT22;12760;46.296;25.290;2022-10-23T07:15:49;13.70;99.90
24614;DHT22;12760;46.296;25.290;2022-10-23T07:18:15;13.60;99.90
24614;DHT22;12760;46.296;25.290;2022-10-23T07:20:41;13.60;99.90
24614;DHT22;12760;46.296;25.290;2022-10-23T07:23:08;13.70;99.90
24614;DHT22;12760;46.296;25.290;2022-10-23T07:25:35;13.70;99.90
24614;DHT22;12760;46.296;25.290;2022-10-23T07:28:02;13.70;99.90
24614;DHT22;12760;46.296;25.290;2022-10-23T07:30:28;13.70;99.90
24614;DHT22;12760;46.296;25.290;2022-10-23T07:32:53;13.80;99.90
24614;DHT22;12760;46.296;25.290;2022-10-23T07:35:19;13.70;99.90
24614;DHT22;12760;46.296;25.290;2022-10-23T07:37:45;13.70;99.90
24614;DHT22;12760;46.296;25.290;2022-10-23T07:40:11;13.70;99.90
24614;DHT22;12760;46.296;25.290;2022-10-23T07:42:36;13.70;99.90
24614;DHT22;12760;46.296;25.290;2022-10-23T07:45:03;13.70;99.90
24614;DHT22;12760;46.296;25.290;2022-10-23T07:47:31;13.60;99.90
24614;DHT22;12760;46.296;25.290;2022-10-23T07:49:57;13.60;99.90
24614;DHT22;12760;46.296;25.290;2022-10-23T07:52:23;13.60;99.90
24614;DHT22;12760;46.296;25.290;2022-10-23T07:54:52;13.60;99.90
24614;DHT22;12760;46.296;25.290;2022-10-23T07:57:19;13.60;99.90
24614;DHT22;12760;46.296;25.290;2022-10-23T07:59:45;13.50;99.90
24614;DHT22;12760;46.296;25.290;2022-10-23T08:02:12;13.50;99.90
24614;DHT22;12760;46.296;25.290;2022-10-23T08:04:38;13.60;99.90
24614;DHT22;12760;46.296;25.290;2022-10-23T08:07:04;13.60;99.90
24614;DHT22;12760;46.296;25.290;2022-10-23T08:09:30;13.60;99.90
24614;DHT22;12760;46.296;25.290;2022-10-23T08:11:56;13.70;99.90
24614;DHT22;12760;46.296;25.290;2022-10-23T08:14:22;13.70;99.90
24614;DHT22;12760;46.296;25.290;2022-10-23T08:16:47;13.80;99.90
24614;DHT22;12760;46.296;25.290;2022-10-23T08:19:13;13.80;99.90
24614;DHT22;12760;46.296;25.290;2022-10-23T08:21:39;13.80;99.90
24614;DHT22;12760;46.296;25.290;2022-10-23T08:24:05;13.80;99.90
24614;DHT22;12760;46.296;25.290;2022-10-23T08:26:31;13.80;99.90
24614;DHT22;12760;46.296;25.290;2022-10-23T08:29:00;13.80;99.90
24614;DHT22;12760;46.296;25.290;2022-10-23T08:31:26;13.80;99.90
24614;DHT22;12760;46.296;25.290;2022-10-23T08:33:52;13.80;99.90
24614;DHT22;12760;46.296;25.290;2022-10-23T08:36:20;13.80;99.90
24614;DHT22;12760;46.296;25.290;2022-10-23T08:38:46;13.70;99.90
24614;DHT22;12760;46.296;25.290;2022-10-23T08:41:36;13.70;99.90
24614;DHT22;12760;46.296;25.290;2022-10-23T08:47:06;13.80;99.90
24614;DHT22;12760;46.296;25.290;2022-10-23T08:49:50;13.80;99.90
24614;DHT22;12760;46.296;25.290;2022-10-23T08:57:26;13.80;99.90
24614;DHT22;12760;46.296;25.290;2022-10-23T09:00:04;13.80;99.90
24614;DHT22;12760;46.296;25.290;2022-10-23T09:02:37;13.90;99.90
24614;DHT22;12760;46.296;25.290;2022-10-23T09:05:26;13.90;99.90
24614;DHT22;12760;46.296;25.290;2022-10-23T09:10:33;13.90;99.90
24614;DHT22;12760;46.296;25.290;2022-10-23T09:18:25;14.00;99.90
24614;DHT22;12760;46.296;25.290;2022-10-23T09:20:50;13.90;99.90
24614;DHT22;12760;46.296;25.290;2022-10-23T09:23:22;13.90;99.90
24614;DHT22;12760;46.296;25.290;2022-10-23T09:25:50;14.00;99.90
24614;DHT22;12760;46.296;25.290;2022-10-23T09:28:22;14.00;99.90
24614;DHT22;12760;46.296;25.290;2022-10-23T09:30:49;14.00;99.90
24614;DHT22;12760;46.296;25.290;2022-10-23T09:33:24;13.90;99.90
24614;DHT22;12760;46.296;25.290;2022-10-23T09:36:02;13.90;99.90
24614;DHT22;12760;46.296;25.290;2022-10-23T09:40:59;14.00;99.90
24614;DHT22;12760;46.296;25.290;2022-10-23T09:43:26;14.00;99.90
24614;DHT22;12760;46.296;25.290;2022-10-23T09:46:04;14.00;99.90
24614;DHT22;12760;46.296;25.290;2022-10-23T09:48:31;14.10;99.90
24614;DHT22;12760;46.296;25.290;2022-10-23T09:51:03;14.00;99.90
24614;DHT22;12760;46.296;25.290;2022-10-23T09:53:39;14.00;99.90
24614;DHT22;12760;46.296;25.290;2022-10-23T09:56:33;13.90;99.90
24614;DHT22;12760;46.296;25.290;2022-10-23T10:02:00;13.90;99.90
24614;DHT22;12760;46.296;25.290;2022-10-23T10:04:32;13.90;99.90
24614;DHT22;12760;46.296;25.290;2022-10-23T10:07:00;13.90;99.90
24614;DHT22;12760;46.296;25.290;2022-10-23T10:09:26;13.90;99.90
24614;DHT22;12760;46.296;25.290;2022-10-23T10:14:54;14.00;99.90
24614;DHT22;12760;46.296;25.290;2022-10-23T10:17:33;14.00;99.90
24614;DHT22;12760;46.296;25.290;2022-10-23T10:23:01;14.00;99.90
24614;DHT22;12760;46.296;25.290;2022-10-23T10:25:41;14.00;99.90
24614;DHT22;12760;46.296;25.290;2022-10-23T10:33:41;14.10;99.90
24614;DHT22;12760;46.296;25.290;2022-10-23T10:39:03;14.00;99.90
24614;DHT22;12760;46.296;25.290;2022-10-23T10:52:26;14.00;99.90
24614;DHT22;12760;46.296;25.290;2022-10-23T10:55:17;14.00;99.90
24614;DHT22;12760;46.296;25.290;2022-10-23T10:57:50;14.00;99.90
24614;DHT22;12760;46.296;25.290;2022-10-23T11:00:19;14.00;99.90
24614;DHT22;12760;46.296;25.290;2022-10-23T11:02:58;14.00;99.90
24614;DHT22;12760;46.296;25.290;2022-10-23T11:05:40;14.00;99.90
24614;DHT22;12760;46.296;25.290;2022-10-23T11:08:13;14.00;99.90
24614;DHT22;12760;46.296;25.290;2022-10-23T11:10:43;14.10;99.90
24614;DHT22;12760;46.296;25.290;2022-10-23T11:13:28;14.00;99.90
24614;DHT22;12760;46.296;25.290;2022-10-23T11:16:04;14.00;99.90
24614;DHT22;12760;46.296;25.290;2022-10-23T11:18:34;14.00;99.90
24614;DHT22;12760;46.296;25.290;2022-10-23T11:29:14;14.20;99.90
24614;DHT22;12760;46.296;25.290;2022-10-23T11:34:46;14.30;99.90
24614;DHT22;12760;46.296;25.290;2022-10-23T11:37:19;14.30;99.90
24614;DHT22;12760;46.296;25.290;2022-10-23T11:40:20;14.40;99.90
24614;DHT22;12760;46.296;25.290;2022-10-23T11:42:47;14.30;99.90
24614;DHT22;12760;46.296;25.290;2022-10-23T11:45:32;14.30;99.90
24614;DHT22;12760;46.296;25.290;2022-10-23T11:48:05;14.30;99.90
24614;DHT22;12760;46.296;25.290;2022-10-23T11:58:55;14.40;99.90
24614;DHT22;12760;46.296;25.290;2022-10-23T12:01:28;14.30;99.90
24614;DHT22;12760;46.296;25.290;2022-10-23T12:04:02;14.40;99.90
24614;DHT22;12760;46.296;25.290;2022-10-23T12:06:31;14.30;99.90
24614;DHT22;12760;46.296;25.290;2022-10-23T12:09:07;14.30;99.90
24614;DHT22;12760;46.296;25.290;2022-10-23T12:11:48;14.30;99.90
24614;DHT22;12760;46.296;25.290;2022-10-23T12:14:33;14.30;99.90
24614;DHT22;12760;46.296;25.290;2022-10-23T12:16:59;14.30;99.90
24614;DHT22;12760;46.296;25.290;2022-10-23T12:19:38;14.40;99.90
24614;DHT22;12760;46.296;25.290;2022-10-23T12:22:10;14.40;99.90
24614;DHT22;12760;46.296;25.290;2022-10-23T12:30:19;14.40;99.90
24614;DHT22;12760;46.296;25.290;2022-10-23T12:41:09;14.50;99.90
24614;DHT22;12760;46.296;25.290;2022-10-23T12:43:37;14.50;99.90
24614;DHT22;12760;46.296;25.290;2022-10-23T12:48:33;14.50;99.90
24614;DHT22;12760;46.296;25.290;2022-10-23T12:50:59;14.60;99.90
24614;DHT22;12760;46.296;25.290;2022-10-23T12:53:24;14.50;99.90
24614;DHT22;12760;46.296;25.290;2022-10-23T12:56:01;14.50;99.90
24614;DHT22;12760;46.296;25.290;2022-10-23T12:58:31;14.50;99.90
24614;DHT22;12760;46.296;25.290;2022-10-23T13:01:00;14.50;99.90
24614;DHT22;12760;46.296;25.290;2022-10-23T13:03:27;14.50;99.90
24614;DHT22;12760;46.296;25.290;2022-10-23T13:05:56;14.60;99.90
24614;DHT22;12760;46.296;25.290;2022-10-23T13:08:40;14.50;99.90
24614;DHT22;12760;46.296;25.290;2022-10-23T13:11:11;14.50;99.90
24614;DHT22;12760;46.296;25.290;2022-10-23T13:13:39;14.50;99.90
24614;DHT22;12760;46.296;25.290;2022-10-23T13:16:24;14.50;99.90
24614;DHT22;12760;46.296;25.290;2022-10-23T13:18:50;14.60;99.90
24614;DHT22;12760;46.296;25.290;2022-10-23T13:21:24;14.60;99.90
24614;DHT22;12760;46.296;25.290;2022-10-23T13:23:52;14.60;99.90
24614;DHT22;12760;46.296;25.290;2022-10-23T13:28:56;14.60;99.90
24614;DHT22;12760;46.296;25.290;2022-10-23T13:31:23;14.60;99.90
24614;DHT22;12760;46.296;25.290;2022-10-23T13:36:28;14.60;99.90
24614;DHT22;12760;46.296;25.290;2022-10-23T13:41:34;14.60;99.90
24614;DHT22;12760;46.296;25.290;2022-10-23T13:44:01;14.70;99.90
24614;DHT22;12760;46.296;25.290;2022-10-23T13:46:26;14.70;99.90
24614;DHT22;12760;46.296;25.290;2022-10-23T13:48:53;14.70;99.90
24614;DHT22;12760;46.296;25.290;2022-10-23T13:51:27;14.70;99.90
24614;DHT22;12760;46.296;25.290;2022-10-23T13:53:54;14.60;99.90
24614;DHT22;12760;46.296;25.290;2022-10-23T13:56:21;14.60;99.90
24614;DHT22;12760;46.296;25.290;2022-10-23T13:58:47;14.60;99.90
24614;DHT22;12760;46.296;25.290;2022-10-23T14:03:48;14.60;99.90
24614;DHT22;12760;46.296;25.290;2022-10-23T14:06:13;14.60;99.90
24614;DHT22;12760;46.296;25.290;2022-10-23T14:08:39;14.60;99.90
24614;DHT22;12760;46.296;25.290;2022-10-23T14:11:05;14.60;99.90
24614;DHT22;12760;46.296;25.290;2022-10-23T14:13:31;14.60;99.90
24614;DHT22;12760;46.296;25.290;2022-10-23T14:15:56;14.60;99.90
24614;DHT22;12760;46.296;25.290;2022-10-23T14:18:22;14.60;99.90
24614;DHT22;12760;46.296;25.290;2022-10-23T14:20:48;14.60;99.90
24614;DHT22;12760;46.296;25.290;2022-10-23T14:23:14;14.60;99.90
24614;DHT22;12760;46.296;25.290;2022-10-23T14:25:40;14.50;99.90
24614;DHT22;12760;46.296;25.290;2022-10-23T14:28:06;14.50;99.90
24614;DHT22;12760;46.296;25.290;2022-10-23T14:30:31;14.40;99.90
24614;DHT22;12760;46.296;25.290;2022-10-23T14:32:57;14.40;99.90
24614;DHT22;12760;46.296;25.290;2022-10-23T14:35:23;14.50;99.90
24614;DHT22;12760;46.296;25.290;2022-10-23T14:37:50;14.40;99.90
24614;DHT22;12760;46.296;25.290;2022-10-23T14:40:15;14.40;99.90
24614;DHT22;12760;46.296;25.290;2022-10-23T14:42:41;14.40;99.90
24614;DHT22;12760;46.296;25.290;2022-10-23T14:45:07;14.30;99.90
24614;DHT22;12760;46.296;25.290;2022-10-23T14:47:33;14.40;99.90
24614;DHT22;12760;46.296;25.290;2022-10-23T14:49:59;14.30;99.90
24614;DHT22;12760;46.296;25.290;2022-10-23T14:52:24;14.30;99.90
24614;DHT22;12760;46.296;25.290;2022-10-23T14:54:51;14.30;99.90
24614;DHT22;12760;46.296;25.290;2022-10-23T14:57:20;14.30;99.90
24614;DHT22;12760;46.296;25.290;2022-10-23T14:59:47;14.20;99.90
24614;DHT22;12760;46.296;25.290;2022-10-23T15:02:14;14.20;99.90
24614;DHT22;12760;46.296;25.290;2022-10-23T15:04:40;14.20;99.90
24614;DHT22;12760;46.296;25.290;2022-10-23T15:07:05;14.20;99.90
24614;DHT22;12760;46.296;25.290;2022-10-23T15:09:31;14.20;99.90
24614;DHT22;12760;46.296;25.290;2022-10-23T15:11:59;14.20;99.90
24614;DHT22;12760;46.296;25.290;2022-10-23T15:14:25;14.20;99.90
24614;DHT22;12760;46.296;25.290;2022-10-23T15:16:51;14.10;99.90
24614;DHT22;12760;46.296;25.290;2022-10-23T15:19:17;14.10;99.90
24614;DHT22;12760;46.296;25.290;2022-10-23T15:21:43;14.10;99.90
24614;DHT22;12760;46.296;25.290;2022-10-23T15:24:08;14.00;99.90
24614;DHT22;12760;46.296;25.290;2022-10-23T15:26:34;13.90;99.90
24614;DHT22;12760;46.296;25.290;2022-10-23T15:29:01;13.90;99.90
24614;DHT22;12760;46.296;25.290;2022-10-23T15:34:06;13.70;99.90
24614;DHT22;12760;46.296;25.290;2022-10-23T15:36:32;13.60;99.90
24614;DHT22;12760;46.296;25.290;2022-10-23T15:38:58;13.60;99.90
24614;DHT22;12760;46.296;25.290;2022-10-23T15:41:29;13.50;99.90
24614;DHT22;12760;46.296;25.290;2022-10-23T15:43:57;13.50;99.90
24614;DHT22;12760;46.296;25.290;2022-10-23T15:46:23;13.40;99.90
24614;DHT22;12760;46.296;25.290;2022-10-23T15:48:49;13.30;99.90
24614;DHT22;12760;46.296;25.290;2022-10-23T15:51:14;13.30;99.90
24614;DHT22;12760;46.296;25.290;2022-10-23T15:53:40;13.10;99.90
24614;DHT22;12760;46.296;25.290;2022-10-23T15:56:06;13.00;99.90
24614;DHT22;12760;46.296;25.290;2022-10-23T15:58:32;13.00;99.90
24614;DHT22;12760;46.296;25.290;2022-10-23T16:00:57;12.90;99.90
24614;DHT22;12760;46.296;25.290;2022-10-23T16:03:27;13.10;99.90
24614;DHT22;12760;46.296;25.290;2022-10-23T16:05:52;13.10;99.90
24614;DHT22;12760;46.296;25.290;2022-10-23T16:08:18;13.10;99.90
24614;DHT22;12760;46.296;25.290;2022-10-23T16:10:44;13.00;99.90
24614;DHT22;12760;46.296;25.290;2022-10-23T16:13:09;13.00;99.90
24614;DHT22;12760;46.296;25.290;2022-10-23T16:15:36;12.90;99.90
24614;DHT22;12760;46.296;25.290;2022-10-23T16:18:01;12.80;99.90
24614;DHT22;12760;46.296;25.290;2022-10-23T16:20:27;12.80;99.90
24614;DHT22;12760;46.296;25.290;2022-10-23T16:22:53;12.80;99.90
24614;DHT22;12760;46.296;25.290;2022-10-23T16:25:19;12.80;99.90
24614;DHT22;12760;46.296;25.290;2022-10-23T16:27:45;12.80;99.90
24614;DHT22;12760;46.296;25.290;2022-10-23T16:30:12;12.70;99.90
24614;DHT22;12760;46.296;25.290;2022-10-23T16:32:41;12.70;99.90
24614;DHT22;12760;46.296;25.290;2022-10-23T16:35:07;12.80;99.90
24614;DHT22;12760;46.296;25.290;2022-10-23T16:37:33;12.80;99.90
24614;DHT22;12760;46.296;25.290;2022-10-23T16:39:59;12.80;99.90
24614;DHT22;12760;46.296;25.290;2022-10-23T16:42:26;12.70;99.90
24614;DHT22;12760;46.296;25.290;2022-10-23T16:44:52;12.70;99.90
24614;DHT22;12760;46.296;25.290;2022-10-23T16:47:18;12.60;99.90
24614;DHT22;12760;46.296;25.290;2022-10-23T16:49:44;12.50;99.90
24614;DHT22;12760;46.296;25.290;2022-10-23T16:52:10;12.50;99.90
24614;DHT22;12760;46.296;25.290;2022-10-23T16:54:35;12.50;99.90
24614;DHT22;12760;46.296;25.290;2022-10-23T16:57:01;12.40;99.90
24614;DHT22;12760;46.296;25.290;2022-10-23T16:59:27;12.40;99.90
24614;DHT22;12760;46.296;25.290;2022-10-23T17:01:52;12.30;99.90
24614;DHT22;12760;46.296;25.290;2022-10-23T17:04:18;12.40;99.90
24614;DHT22;12760;46.296;25.290;2022-10-23T17:06:44;12.50;99.90
24614;DHT22;12760;46.296;25.290;2022-10-23T17:09:10;12.40;99.90
24614;DHT22;12760;46.296;25.290;2022-10-23T17:11:37;12.40;99.90
24614;DHT22;12760;46.296;25.290;2022-10-23T17:14:08;12.40;99.90
24614;DHT22;12760;46.296;25.290;2022-10-23T17:19:04;12.40;99.90
24614;DHT22;12760;46.296;25.290;2022-10-23T17:21:32;12.30;99.90
24614;DHT22;12760;46.296;25.290;2022-10-23T17:23:58;12.30;99.90
24614;DHT22;12760;46.296;25.290;2022-10-23T17:26:24;12.30;99.90
24614;DHT22;12760;46.296;25.290;2022-10-23T17:28:50;12.30;99.90